sensor_id;sensor_type;location;lat;lon;timestamp;P1;durP1;ratioP1;P2;durP2;ratioP2
13202;SDS011;6666;51.626;7.530;2022-10-16T00:01:11;5.65;;;3.28;;
13202;SDS011;6666;51.626;7.530;2022-10-16T00:03:41;6.90;;;3.20;;
13202;SDS011;6666;51.626;7.530;2022-10-16T00:06:12;7.00;;;3.40;;
13202;SDS011;6666;51.626;7.530;2022-10-16T00:08:42;5.50;;;3.40;;
13202;SDS011;6666;51.626;7.530;2022-10-16T00:11:11;6.40;;;3.88;;
13202;SDS011;6666;51.626;7.530;2022-10-16T00:13:43;6.43;;;4.30;;
13202;SDS011;6666;51.626;7.530;2022-10-16T00:16:12;7.70;;;3.97;;
13202;SDS011;6666;51.626;7.530;2022-10-16T00:18:41;4.90;;;3.38;;
13202;SDS011;6666;51.626;7.530;2022-10-16T00:21:10;4.83;;;3.20;;
13202;SDS011;6666;51.626;7.530;2022-10-16T00:23:42;7.25;;;3.60;;
13202;SDS011;6666;51.626;7.530;2022-10-16T00:26:12;7.28;;;3.10;;
13202;SDS011;6666;51.626;7.530;2022-10-16T00:28:42;7.03;;;3.70;;
13202;SDS011;6666;51.626;7.530;2022-10-16T00:31:12;7.30;;;2.92;;
13202;SDS011;6666;51.626;7.530;2022-10-16T00:33:41;6.35;;;3.67;;
13202;SDS011;6666;51.626;7.530;2022-10-16T00:36:11;7.72;;;3.55;;
13202;SDS011;6666;51.626;7.530;2022-10-16T00:38:42;5.78;;;3.20;;
13202;SDS011;6666;51.626;7.530;2022-10-16T00:41:11;4.95;;;3.30;;
13202;SDS011;6666;51.626;7.530;2022-10-16T00:43:42;4.35;;;2.90;;
13202;SDS011;6666;51.626;7.530;2022-10-16T00:46:15;7.18;;;3.08;;
13202;SDS011;6666;51.626;7.530;2022-10-16T00:48:49;6.80;;;3.00;;
13202;SDS011;6666;51.626;7.530;2022-10-16T00:51:21;5.30;;;2.80;;
13202;SDS011;6666;51.626;7.530;2022-10-16T00:53:53;9.73;;;2.90;;
13202;SDS011;6666;51.626;7.530;2022-10-16T00:56:22;7.38;;;2.80;;
13202;SDS011;6666;51.626;7.530;2022-10-16T00:58:50;5.57;;;3.03;;
13202;SDS011;6666;51.626;7.530;2022-10-16T01:01:19;5.40;;;3.40;;
13202;SDS011;6666;51.626;7.530;2022-10-16T01:03:47;5.95;;;3.15;;
13202;SDS011;6666;51.626;7.530;2022-10-16T01:06:21;4.80;;;3.03;;
13202;SDS011;6666;51.626;7.530;2022-10-16T01:08:58;6.15;;;3.58;;
13202;SDS011;6666;51.626;7.530;2022-10-16T01:11:36;10.75;;;4.18;;
13202;SDS011;6666;51.626;7.530;2022-10-16T01:14:14;4.03;;;2.95;;
13202;SDS011;6666;51.626;7.530;2022-10-16T01:16:48;7.32;;;3.65;;
13202;SDS011;6666;51.626;7.530;2022-10-16T01:19:24;5.57;;;2.90;;
13202;SDS011;6666;51.626;7.530;2022-10-16T01:22:04;5.85;;;3.05;;
13202;SDS011;6666;51.626;7.530;2022-10-16T01:24:38;4.87;;;3.27;;
13202;SDS011;6666;51.626;7.530;2022-10-16T01:27:12;7.40;;;3.30;;
13202;SDS011;6666;51.626;7.530;2022-10-16T01:29:45;9.30;;;3.40;;
13202;SDS011;6666;51.626;7.530;2022-10-16T01:32:18;7.50;;;2.83;;
13202;SDS011;6666;51.626;7.530;2022-10-16T01:34:57;4.53;;;2.80;;
13202;SDS011;6666;51.626;7.530;2022-10-16T01:37:31;3.80;;;2.65;;
13202;SDS011;6666;51.626;7.530;2022-10-16T01:40:05;3.70;;;2.35;;
13202;SDS011;6666;51.626;7.530;2022-10-16T01:42:38;5.20;;;2.20;;
13202;SDS011;6666;51.626;7.530;2022-10-16T01:45:11;4.20;;;2.53;;
13202;SDS011;6666;51.626;7.530;2022-10-16T01:47:44;5.93;;;2.30;;
13202;SDS011;6666;51.626;7.530;2022-10-16T01:50:15;6.00;;;2.75;;
13202;SDS011;6666;51.626;7.530;2022-10-16T01:52:47;3.45;;;1.95;;
13202;SDS011;6666;51.626;7.530;2022-10-16T01:55:18;5.40;;;2.20;;
13202;SDS011;6666;51.626;7.530;2022-10-16T01:57:52;7.30;;;2.10;;
13202;SDS011;6666;51.626;7.530;2022-10-16T02:00:22;3.80;;;2.10;;
13202;SDS011;6666;51.626;7.530;2022-10-16T02:02:51;2.80;;;2.05;;
13202;SDS011;6666;51.626;7.530;2022-10-16T02:05:23;5.32;;;2.15;;
13202;SDS011;6666;51.626;7.530;2022-10-16T02:07:55;8.40;;;2.30;;
13202;SDS011;6666;51.626;7.530;2022-10-16T02:10:28;4.15;;;2.10;;
13202;SDS011;6666;51.626;7.530;2022-10-16T02:13:00;5.38;;;2.20;;
13202;SDS011;6666;51.626;7.530;2022-10-16T02:15:33;3.75;;;2.20;;
13202;SDS011;6666;51.626;7.530;2022-10-16T02:18:01;4.40;;;2.47;;
13202;SDS011;6666;51.626;7.530;2022-10-16T02:20:32;4.30;;;2.00;;
13202;SDS011;6666;51.626;7.530;2022-10-16T02:23:05;2.30;;;2.00;;
13202;SDS011;6666;51.626;7.530;2022-10-16T02:25:41;5.10;;;2.50;;
13202;SDS011;6666;51.626;7.530;2022-10-16T02:28:13;3.60;;;2.20;;
13202;SDS011;6666;51.626;7.530;2022-10-16T02:30:46;6.40;;;2.70;;
13202;SDS011;6666;51.626;7.530;2022-10-16T02:33:18;2.53;;;2.00;;
13202;SDS011;6666;51.626;7.530;2022-10-16T02:35:48;2.83;;;1.90;;
13202;SDS011;6666;51.626;7.530;2022-10-16T02:38:18;2.50;;;1.97;;
13202;SDS011;6666;51.626;7.530;2022-10-16T02:40:48;2.90;;;1.90;;
13202;SDS011;6666;51.626;7.530;2022-10-16T02:43:18;5.03;;;2.20;;
13202;SDS011;6666;51.626;7.530;2022-10-16T02:45:46;3.55;;;2.10;;
13202;SDS011;6666;51.626;7.530;2022-10-16T02:48:15;2.85;;;1.75;;
13202;SDS011;6666;51.626;7.530;2022-10-16T02:54:56;2.75;;;1.60;;
13202;SDS011;6666;51.626;7.530;2022-10-16T02:57:25;4.50;;;1.60;;
13202;SDS011;6666;51.626;7.530;2022-10-16T02:59:55;4.15;;;1.70;;
13202;SDS011;6666;51.626;7.530;2022-10-16T03:02:23;4.70;;;1.70;;
13202;SDS011;6666;51.626;7.530;2022-10-16T03:04:51;5.55;;;1.60;;
13202;SDS011;6666;51.626;7.530;2022-10-16T03:07:19;2.38;;;1.40;;
13202;SDS011;6666;51.626;7.530;2022-10-16T03:09:48;5.20;;;1.90;;
13202;SDS011;6666;51.626;7.530;2022-10-16T03:12:16;3.80;;;1.60;;
13202;SDS011;6666;51.626;7.530;2022-10-16T03:14:44;2.63;;;1.60;;
13202;SDS011;6666;51.626;7.530;2022-10-16T03:17:14;2.33;;;1.77;;
13202;SDS011;6666;51.626;7.530;2022-10-16T03:19:43;3.15;;;1.30;;
13202;SDS011;6666;51.626;7.530;2022-10-16T03:22:11;4.70;;;1.60;;
13202;SDS011;6666;51.626;7.530;2022-10-16T03:24:39;4.57;;;1.70;;
13202;SDS011;6666;51.626;7.530;2022-10-16T03:27:08;4.10;;;1.40;;
13202;SDS011;6666;51.626;7.530;2022-10-16T03:29:36;2.30;;;1.60;;
13202;SDS011;6666;51.626;7.530;2022-10-16T03:32:04;1.95;;;1.15;;
13202;SDS011;6666;51.626;7.530;2022-10-16T03:34:34;2.00;;;1.42;;
13202;SDS011;6666;51.626;7.530;2022-10-16T03:37:02;2.13;;;1.33;;
13202;SDS011;6666;51.626;7.530;2022-10-16T03:39:30;1.60;;;1.20;;
13202;SDS011;6666;51.626;7.530;2022-10-16T03:41:59;2.50;;;1.30;;
13202;SDS011;6666;51.626;7.530;2022-10-16T03:44:27;1.95;;;1.40;;
13202;SDS011;6666;51.626;7.530;2022-10-16T03:46:55;1.60;;;1.50;;
13202;SDS011;6666;51.626;7.530;2022-10-16T03:49:23;2.10;;;1.20;;
13202;SDS011;6666;51.626;7.530;2022-10-16T03:51:53;1.80;;;1.50;;
13202;SDS011;6666;51.626;7.530;2022-10-16T03:54:21;2.40;;;1.25;;
13202;SDS011;6666;51.626;7.530;2022-10-16T03:56:49;1.40;;;1.30;;
13202;SDS011;6666;51.626;7.530;2022-10-16T03:59:18;2.70;;;1.17;;
13202;SDS011;6666;51.626;7.530;2022-10-16T04:01:46;4.20;;;1.50;;
13202;SDS011;6666;51.626;7.530;2022-10-16T04:04:14;2.00;;;1.30;;
13202;SDS011;6666;51.626;7.530;2022-10-16T04:06:42;5.50;;;1.35;;
13202;SDS011;6666;51.626;7.530;2022-10-16T04:09:12;2.35;;;1.20;;
13202;SDS011;6666;51.626;7.530;2022-10-16T04:11:40;1.80;;;1.30;;
13202;SDS011;6666;51.626;7.530;2022-10-16T04:14:08;6.65;;;1.40;;
13202;SDS011;6666;51.626;7.530;2022-10-16T04:16:36;1.85;;;1.48;;
13202;SDS011;6666;51.626;7.530;2022-10-16T04:19:05;2.00;;;1.30;;
13202;SDS011;6666;51.626;7.530;2022-10-16T04:21:33;1.83;;;1.38;;
13202;SDS011;6666;51.626;7.530;2022-10-16T04:24:01;1.50;;;1.40;;
13202;SDS011;6666;51.626;7.530;2022-10-16T04:26:31;3.90;;;1.45;;
13202;SDS011;6666;51.626;7.530;2022-10-16T04:28:59;4.38;;;1.30;;
13202;SDS011;6666;51.626;7.530;2022-10-16T04:31:28;1.60;;;1.20;;
13202;SDS011;6666;51.626;7.530;2022-10-16T04:33:56;1.20;;;1.10;;
13202;SDS011;6666;51.626;7.530;2022-10-16T04:36:25;2.27;;;1.40;;
13202;SDS011;6666;51.626;7.530;2022-10-16T04:38:54;1.50;;;1.40;;
13202;SDS011;6666;51.626;7.530;2022-10-16T04:41:23;3.70;;;1.50;;
13202;SDS011;6666;51.626;7.530;2022-10-16T04:43:52;1.20;;;1.10;;
13202;SDS011;6666;51.626;7.530;2022-10-16T04:46:20;1.40;;;1.30;;
13202;SDS011;6666;51.626;7.530;2022-10-16T04:48:49;1.50;;;1.40;;
13202;SDS011;6666;51.626;7.530;2022-10-16T04:51:17;1.40;;;1.20;;
13202;SDS011;6666;51.626;7.530;2022-10-16T04:53:45;1.60;;;1.10;;
13202;SDS011;6666;51.626;7.530;2022-10-16T04:56:13;1.40;;;1.10;;
13202;SDS011;6666;51.626;7.530;2022-10-16T04:58:42;1.25;;;1.10;;
13202;SDS011;6666;51.626;7.530;2022-10-16T05:01:12;1.30;;;1.20;;
13202;SDS011;6666;51.626;7.530;2022-10-16T05:03:40;1.60;;;1.20;;
13202;SDS011;6666;51.626;7.530;2022-10-16T05:06:08;1.60;;;1.30;;
13202;SDS011;6666;51.626;7.530;2022-10-16T05:08:36;2.63;;;1.00;;
13202;SDS011;6666;51.626;7.530;2022-10-16T05:11:05;3.45;;;1.10;;
13202;SDS011;6666;51.626;7.530;2022-10-16T05:13:33;3.55;;;1.20;;
13202;SDS011;6666;51.626;7.530;2022-10-16T05:16:01;1.10;;;1.00;;
13202;SDS011;6666;51.626;7.530;2022-10-16T05:18:31;1.40;;;1.30;;
13202;SDS011;6666;51.626;7.530;2022-10-16T05:20:59;1.50;;;1.40;;
13202;SDS011;6666;51.626;7.530;2022-10-16T05:23:27;1.30;;;1.08;;
13202;SDS011;6666;51.626;7.530;2022-10-16T05:25:55;1.40;;;1.10;;
13202;SDS011;6666;51.626;7.530;2022-10-16T05:28:25;3.60;;;1.10;;
13202;SDS011;6666;51.626;7.530;2022-10-16T05:30:54;1.63;;;1.30;;
13202;SDS011;6666;51.626;7.530;2022-10-16T05:33:23;1.90;;;1.35;;
13202;SDS011;6666;51.626;7.530;2022-10-16T05:35:54;2.72;;;1.25;;
13202;SDS011;6666;51.626;7.530;2022-10-16T05:38:22;1.25;;;0.90;;
13202;SDS011;6666;51.626;7.530;2022-10-16T05:40:50;2.10;;;1.20;;
13202;SDS011;6666;51.626;7.530;2022-10-16T05:43:19;7.20;;;1.10;;
13202;SDS011;6666;51.626;7.530;2022-10-16T05:45:53;1.10;;;0.90;;
13202;SDS011;6666;51.626;7.530;2022-10-16T05:48:22;1.40;;;1.20;;
13202;SDS011;6666;51.626;7.530;2022-10-16T05:50:57;2.00;;;1.00;;
13202;SDS011;6666;51.626;7.530;2022-10-16T05:53:26;1.10;;;1.00;;
13202;SDS011;6666;51.626;7.530;2022-10-16T05:55:55;4.95;;;1.20;;
13202;SDS011;6666;51.626;7.530;2022-10-16T05:58:24;3.20;;;1.00;;
13202;SDS011;6666;51.626;7.530;2022-10-16T06:00:54;1.13;;;1.02;;
13202;SDS011;6666;51.626;7.530;2022-10-16T06:03:23;1.30;;;0.90;;
13202;SDS011;6666;51.626;7.530;2022-10-16T06:05:51;2.58;;;1.10;;
13202;SDS011;6666;51.626;7.530;2022-10-16T06:08:22;1.70;;;0.90;;
13202;SDS011;6666;51.626;7.530;2022-10-16T06:10:59;3.40;;;1.30;;
13202;SDS011;6666;51.626;7.530;2022-10-16T06:13:29;1.13;;;1.00;;
13202;SDS011;6666;51.626;7.530;2022-10-16T06:15:57;1.20;;;1.10;;
13202;SDS011;6666;51.626;7.530;2022-10-16T06:18:27;2.08;;;0.93;;
13202;SDS011;6666;51.626;7.530;2022-10-16T06:20:56;1.70;;;1.10;;
13202;SDS011;6666;51.626;7.530;2022-10-16T06:23:28;1.38;;;1.02;;
13202;SDS011;6666;51.626;7.530;2022-10-16T06:26:03;1.40;;;1.15;;
13202;SDS011;6666;51.626;7.530;2022-10-16T06:28:32;3.27;;;1.20;;
13202;SDS011;6666;51.626;7.530;2022-10-16T06:31:00;3.90;;;1.20;;
13202;SDS011;6666;51.626;7.530;2022-10-16T06:33:34;1.10;;;1.00;;
13202;SDS011;6666;51.626;7.530;2022-10-16T06:36:03;3.05;;;1.13;;
13202;SDS011;6666;51.626;7.530;2022-10-16T06:38:33;1.40;;;1.20;;
13202;SDS011;6666;51.626;7.530;2022-10-16T06:41:02;1.38;;;1.10;;
13202;SDS011;6666;51.626;7.530;2022-10-16T06:43:32;1.27;;;0.90;;
13202;SDS011;6666;51.626;7.530;2022-10-16T06:46:01;5.97;;;1.30;;
13202;SDS011;6666;51.626;7.530;2022-10-16T06:48:31;1.60;;;1.00;;
13202;SDS011;6666;51.626;7.530;2022-10-16T06:51:00;1.45;;;0.90;;
13202;SDS011;6666;51.626;7.530;2022-10-16T06:53:32;2.00;;;1.00;;
13202;SDS011;6666;51.626;7.530;2022-10-16T06:56:20;2.90;;;1.00;;
13202;SDS011;6666;51.626;7.530;2022-10-16T06:58:50;2.28;;;1.40;;
13202;SDS011;6666;51.626;7.530;2022-10-16T07:01:20;4.90;;;1.15;;
13202;SDS011;6666;51.626;7.530;2022-10-16T07:03:49;2.20;;;1.20;;
13202;SDS011;6666;51.626;7.530;2022-10-16T07:06:19;2.10;;;1.30;;
13202;SDS011;6666;51.626;7.530;2022-10-16T07:08:50;1.30;;;1.10;;
13202;SDS011;6666;51.626;7.530;2022-10-16T07:11:20;2.15;;;1.17;;
13202;SDS011;6666;51.626;7.530;2022-10-16T07:13:50;2.67;;;1.20;;
13202;SDS011;6666;51.626;7.530;2022-10-16T07:16:22;2.05;;;1.20;;
13202;SDS011;6666;51.626;7.530;2022-10-16T07:18:51;1.63;;;1.00;;
13202;SDS011;6666;51.626;7.530;2022-10-16T07:21:25;1.33;;;1.10;;
13202;SDS011;6666;51.626;7.530;2022-10-16T07:23:57;3.50;;;1.20;;
13202;SDS011;6666;51.626;7.530;2022-10-16T07:26:28;1.70;;;1.50;;
13202;SDS011;6666;51.626;7.530;2022-10-16T07:28:57;2.50;;;1.00;;
13202;SDS011;6666;51.626;7.530;2022-10-16T07:31:26;2.70;;;1.98;;
13202;SDS011;6666;51.626;7.530;2022-10-16T07:33:55;1.55;;;1.30;;
13202;SDS011;6666;51.626;7.530;2022-10-16T07:36:25;2.80;;;1.60;;
13202;SDS011;6666;51.626;7.530;2022-10-16T07:38:54;2.20;;;1.20;;
13202;SDS011;6666;51.626;7.530;2022-10-16T07:41:26;1.90;;;1.20;;
13202;SDS011;6666;51.626;7.530;2022-10-16T07:43:54;1.50;;;1.20;;
13202;SDS011;6666;51.626;7.530;2022-10-16T07:46:26;3.30;;;1.10;;
13202;SDS011;6666;51.626;7.530;2022-10-16T07:48:55;6.03;;;1.55;;
13202;SDS011;6666;51.626;7.530;2022-10-16T07:51:24;3.70;;;1.50;;
13202;SDS011;6666;51.626;7.530;2022-10-16T07:53:53;3.00;;;2.05;;
13202;SDS011;6666;51.626;7.530;2022-10-16T07:56:23;4.07;;;1.80;;
13202;SDS011;6666;51.626;7.530;2022-10-16T07:58:51;1.70;;;1.45;;
13202;SDS011;6666;51.626;7.530;2022-10-16T08:01:20;4.15;;;1.60;;
13202;SDS011;6666;51.626;7.530;2022-10-16T08:03:49;1.65;;;1.40;;
13202;SDS011;6666;51.626;7.530;2022-10-16T08:06:19;3.40;;;1.70;;
13202;SDS011;6666;51.626;7.530;2022-10-16T08:08:53;5.07;;;1.30;;
13202;SDS011;6666;51.626;7.530;2022-10-16T08:11:23;5.70;;;1.60;;
13202;SDS011;6666;51.626;7.530;2022-10-16T08:13:52;2.20;;;1.70;;
13202;SDS011;6666;51.626;7.530;2022-10-16T08:16:20;3.20;;;1.50;;
13202;SDS011;6666;51.626;7.530;2022-10-16T08:18:48;1.40;;;1.30;;
13202;SDS011;6666;51.626;7.530;2022-10-16T08:21:18;3.33;;;2.10;;
13202;SDS011;6666;51.626;7.530;2022-10-16T08:23:49;1.83;;;1.30;;
13202;SDS011;6666;51.626;7.530;2022-10-16T08:26:24;1.80;;;1.30;;
13202;SDS011;6666;51.626;7.530;2022-10-16T08:28:53;2.35;;;1.20;;
13202;SDS011;6666;51.626;7.530;2022-10-16T08:31:23;2.42;;;1.40;;
13202;SDS011;6666;51.626;7.530;2022-10-16T08:33:52;1.65;;;1.13;;
13202;SDS011;6666;51.626;7.530;2022-10-16T08:36:21;1.70;;;1.50;;
13202;SDS011;6666;51.626;7.530;2022-10-16T08:38:49;1.80;;;1.60;;
13202;SDS011;6666;51.626;7.530;2022-10-16T08:41:29;1.58;;;1.27;;
13202;SDS011;6666;51.626;7.530;2022-10-16T08:44:26;3.80;;;1.13;;
13202;SDS011;6666;51.626;7.530;2022-10-16T08:47:06;1.98;;;1.10;;
13202;SDS011;6666;51.626;7.530;2022-10-16T08:49:46;2.65;;;1.20;;
13202;SDS011;6666;51.626;7.530;2022-10-16T08:52:22;2.03;;;0.95;;
13202;SDS011;6666;51.626;7.530;2022-10-16T08:54:53;1.50;;;1.10;;
13202;SDS011;6666;51.626;7.530;2022-10-16T08:57:25;3.15;;;1.20;;
13202;SDS011;6666;51.626;7.530;2022-10-16T08:59:54;1.85;;;1.10;;
13202;SDS011;6666;51.626;7.530;2022-10-16T09:02:29;2.38;;;1.02;;
13202;SDS011;6666;51.626;7.530;2022-10-16T09:05:02;1.47;;;0.90;;
13202;SDS011;6666;51.626;7.530;2022-10-16T09:07:46;2.55;;;1.10;;
13202;SDS011;6666;51.626;7.530;2022-10-16T09:10:24;1.90;;;0.90;;
13202;SDS011;6666;51.626;7.530;2022-10-16T09:13:08;1.20;;;0.80;;
13202;SDS011;6666;51.626;7.530;2022-10-16T09:15:46;2.00;;;0.90;;
13202;SDS011;6666;51.626;7.530;2022-10-16T09:18:21;3.10;;;0.90;;
13202;SDS011;6666;51.626;7.530;2022-10-16T09:20:59;2.60;;;1.00;;
13202;SDS011;6666;51.626;7.530;2022-10-16T09:23:34;2.20;;;0.73;;
13202;SDS011;6666;51.626;7.530;2022-10-16T09:26:04;3.60;;;0.90;;
13202;SDS011;6666;51.626;7.530;2022-10-16T09:28:38;3.50;;;1.00;;
13202;SDS011;6666;51.626;7.530;2022-10-16T09:31:10;2.03;;;0.88;;
13202;SDS011;6666;51.626;7.530;2022-10-16T09:33:43;3.00;;;0.80;;
13202;SDS011;6666;51.626;7.530;2022-10-16T09:36:15;3.53;;;0.80;;
13202;SDS011;6666;51.626;7.530;2022-10-16T09:38:45;4.00;;;0.80;;
13202;SDS011;6666;51.626;7.530;2022-10-16T09:41:14;1.92;;;0.80;;
13202;SDS011;6666;51.626;7.530;2022-10-16T09:43:51;1.70;;;0.70;;
13202;SDS011;6666;51.626;7.530;2022-10-16T09:46:22;1.77;;;0.80;;
13202;SDS011;6666;51.626;7.530;2022-10-16T09:48:54;2.80;;;1.10;;
13202;SDS011;6666;51.626;7.530;2022-10-16T09:51:26;3.20;;;0.70;;
13202;SDS011;6666;51.626;7.530;2022-10-16T09:53:57;1.40;;;0.70;;
13202;SDS011;6666;51.626;7.530;2022-10-16T09:56:27;3.70;;;0.88;;
13202;SDS011;6666;51.626;7.530;2022-10-16T09:58:59;3.80;;;0.80;;
13202;SDS011;6666;51.626;7.530;2022-10-16T10:01:29;1.50;;;0.70;;
13202;SDS011;6666;51.626;7.530;2022-10-16T10:04:02;1.97;;;1.20;;
13202;SDS011;6666;51.626;7.530;2022-10-16T10:06:33;2.17;;;0.90;;
13202;SDS011;6666;51.626;7.530;2022-10-16T10:09:05;2.20;;;0.80;;
13202;SDS011;6666;51.626;7.530;2022-10-16T10:11:46;2.38;;;0.70;;
13202;SDS011;6666;51.626;7.530;2022-10-16T10:14:19;2.60;;;0.70;;
13202;SDS011;6666;51.626;7.530;2022-10-16T10:17:10;9.35;;;1.40;;
13202;SDS011;6666;51.626;7.530;2022-10-16T10:19:41;5.38;;;0.80;;
13202;SDS011;6666;51.626;7.530;2022-10-16T10:22:17;1.40;;;0.70;;
13202;SDS011;6666;51.626;7.530;2022-10-16T10:24:55;4.90;;;0.80;;
13202;SDS011;6666;51.626;7.530;2022-10-16T10:27:26;2.92;;;0.80;;
13202;SDS011;6666;51.626;7.530;2022-10-16T10:30:02;2.03;;;0.80;;
13202;SDS011;6666;51.626;7.530;2022-10-16T10:32:37;5.80;;;1.40;;
13202;SDS011;6666;51.626;7.530;2022-10-16T10:35:13;1.73;;;0.70;;
13202;SDS011;6666;51.626;7.530;2022-10-16T10:37:48;5.15;;;0.82;;
13202;SDS011;6666;51.626;7.530;2022-10-16T10:40:33;1.13;;;0.60;;
13202;SDS011;6666;51.626;7.530;2022-10-16T10:43:10;1.75;;;1.08;;
13202;SDS011;6666;51.626;7.530;2022-10-16T10:45:51;1.35;;;0.75;;
13202;SDS011;6666;51.626;7.530;2022-10-16T10:48:27;3.30;;;0.70;;
13202;SDS011;6666;51.626;7.530;2022-10-16T10:51:10;2.67;;;1.60;;
13202;SDS011;6666;51.626;7.530;2022-10-16T10:53:44;6.28;;;1.90;;
13202;SDS011;6666;51.626;7.530;2022-10-16T10:56:22;4.30;;;1.43;;
13202;SDS011;6666;51.626;7.530;2022-10-16T11:02:12;18.75;;;1.15;;
13202;SDS011;6666;51.626;7.530;2022-10-16T11:04:50;1.38;;;0.80;;
13202;SDS011;6666;51.626;7.530;2022-10-16T11:07:47;2.13;;;0.77;;
13202;SDS011;6666;51.626;7.530;2022-10-16T11:10:20;2.20;;;0.80;;
13202;SDS011;6666;51.626;7.530;2022-10-16T11:12:51;2.30;;;0.80;;
13202;SDS011;6666;51.626;7.530;2022-10-16T11:15:23;2.83;;;0.90;;
13202;SDS011;6666;51.626;7.530;2022-10-16T11:17:59;2.78;;;0.60;;
13202;SDS011;6666;51.626;7.530;2022-10-16T11:20:32;4.70;;;0.80;;
13202;SDS011;6666;51.626;7.530;2022-10-16T11:23:06;4.25;;;0.80;;
13202;SDS011;6666;51.626;7.530;2022-10-16T11:25:42;2.17;;;1.00;;
13202;SDS011;6666;51.626;7.530;2022-10-16T11:28:13;2.40;;;0.83;;
13202;SDS011;6666;51.626;7.530;2022-10-16T11:30:44;1.30;;;0.70;;
13202;SDS011;6666;51.626;7.530;2022-10-16T11:33:29;1.90;;;0.80;;
13202;SDS011;6666;51.626;7.530;2022-10-16T11:36:06;2.80;;;0.70;;
13202;SDS011;6666;51.626;7.530;2022-10-16T11:38:42;1.63;;;0.70;;
13202;SDS011;6666;51.626;7.530;2022-10-16T11:41:18;3.20;;;0.80;;
13202;SDS011;6666;51.626;7.530;2022-10-16T11:43:53;1.48;;;0.90;;
13202;SDS011;6666;51.626;7.530;2022-10-16T11:46:31;3.70;;;0.90;;
13202;SDS011;6666;51.626;7.530;2022-10-16T11:49:24;1.60;;;0.90;;
13202;SDS011;6666;51.626;7.530;2022-10-16T11:51:56;3.13;;;0.90;;
13202;SDS011;6666;51.626;7.530;2022-10-16T11:54:32;1.63;;;1.00;;
13202;SDS011;6666;51.626;7.530;2022-10-16T11:57:08;2.17;;;0.80;;
13202;SDS011;6666;51.626;7.530;2022-10-16T11:59:42;1.85;;;0.70;;
13202;SDS011;6666;51.626;7.530;2022-10-16T12:02:33;1.70;;;0.80;;
13202;SDS011;6666;51.626;7.530;2022-10-16T12:05:21;2.50;;;1.00;;
13202;SDS011;6666;51.626;7.530;2022-10-16T12:07:59;2.13;;;0.98;;
13202;SDS011;6666;51.626;7.530;2022-10-16T12:10:34;2.38;;;0.90;;
13202;SDS011;6666;51.626;7.530;2022-10-16T12:13:04;1.77;;;0.80;;
13202;SDS011;6666;51.626;7.530;2022-10-16T12:15:33;1.02;;;0.80;;
13202;SDS011;6666;51.626;7.530;2022-10-16T12:18:22;1.25;;;0.88;;
13202;SDS011;6666;51.626;7.530;2022-10-16T12:20:56;1.70;;;0.88;;
13202;SDS011;6666;51.626;7.530;2022-10-16T12:23:27;2.90;;;0.90;;
13202;SDS011;6666;51.626;7.530;2022-10-16T12:25:55;2.20;;;1.00;;
13202;SDS011;6666;51.626;7.530;2022-10-16T12:28:26;3.00;;;0.98;;
13202;SDS011;6666;51.626;7.530;2022-10-16T12:30:56;1.30;;;1.10;;
13202;SDS011;6666;51.626;7.530;2022-10-16T12:33:26;1.80;;;1.30;;
13202;SDS011;6666;51.626;7.530;2022-10-16T12:35:58;6.80;;;2.17;;
13202;SDS011;6666;51.626;7.530;2022-10-16T12:38:28;4.57;;;1.77;;
13202;SDS011;6666;51.626;7.530;2022-10-16T12:41:03;8.25;;;4.68;;
13202;SDS011;6666;51.626;7.530;2022-10-16T12:43:35;27.00;;;16.20;;
13202;SDS011;6666;51.626;7.530;2022-10-16T12:46:20;13.82;;;7.78;;
13202;SDS011;6666;51.626;7.530;2022-10-16T12:48:50;5.68;;;3.70;;
13202;SDS011;6666;51.626;7.530;2022-10-16T12:51:35;5.18;;;2.35;;
13202;SDS011;6666;51.626;7.530;2022-10-16T12:54:09;1.60;;;1.20;;
13202;SDS011;6666;51.626;7.530;2022-10-16T12:56:43;4.05;;;1.60;;
13202;SDS011;6666;51.626;7.530;2022-10-16T12:59:21;1.27;;;0.90;;
13202;SDS011;6666;51.626;7.530;2022-10-16T13:02:16;2.83;;;1.60;;
13202;SDS011;6666;51.626;7.530;2022-10-16T13:05:02;1.50;;;1.40;;
13202;SDS011;6666;51.626;7.530;2022-10-16T13:07:47;1.40;;;1.10;;
13202;SDS011;6666;51.626;7.530;2022-10-16T13:10:24;2.00;;;1.30;;
13202;SDS011;6666;51.626;7.530;2022-10-16T13:13:10;1.85;;;0.77;;
13202;SDS011;6666;51.626;7.530;2022-10-16T13:16:02;1.20;;;0.73;;
13202;SDS011;6666;51.626;7.530;2022-10-16T13:18:43;2.40;;;0.90;;
13202;SDS011;6666;51.626;7.530;2022-10-16T13:21:26;1.83;;;1.08;;
13202;SDS011;6666;51.626;7.530;2022-10-16T13:24:06;3.65;;;1.00;;
13202;SDS011;6666;51.626;7.530;2022-10-16T13:26:49;2.10;;;0.95;;
13202;SDS011;6666;51.626;7.530;2022-10-16T13:29:25;3.65;;;1.10;;
13202;SDS011;6666;51.626;7.530;2022-10-16T13:31:58;2.33;;;0.80;;
13202;SDS011;6666;51.626;7.530;2022-10-16T13:34:28;1.80;;;0.60;;
13202;SDS011;6666;51.626;7.530;2022-10-16T13:36:56;4.50;;;0.80;;
13202;SDS011;6666;51.626;7.530;2022-10-16T13:39:27;3.50;;;0.77;;
13202;SDS011;6666;51.626;7.530;2022-10-16T13:42:03;9.60;;;0.80;;
13202;SDS011;6666;51.626;7.530;2022-10-16T13:44:36;1.65;;;0.60;;
13202;SDS011;6666;51.626;7.530;2022-10-16T13:47:12;2.05;;;0.70;;
13202;SDS011;6666;51.626;7.530;2022-10-16T13:49:43;2.00;;;0.70;;
13202;SDS011;6666;51.626;7.530;2022-10-16T13:52:16;3.95;;;0.80;;
13202;SDS011;6666;51.626;7.530;2022-10-16T13:54:47;2.50;;;1.00;;
13202;SDS011;6666;51.626;7.530;2022-10-16T13:57:16;1.40;;;0.77;;
13202;SDS011;6666;51.626;7.530;2022-10-16T13:59:53;2.90;;;0.80;;
13202;SDS011;6666;51.626;7.530;2022-10-16T14:02:22;4.47;;;0.70;;
13202;SDS011;6666;51.626;7.530;2022-10-16T14:04:54;2.57;;;0.93;;
13202;SDS011;6666;51.626;7.530;2022-10-16T14:07:25;2.10;;;0.70;;
13202;SDS011;6666;51.626;7.530;2022-10-16T14:10:00;2.90;;;0.70;;
13202;SDS011;6666;51.626;7.530;2022-10-16T14:12:30;1.30;;;0.70;;
13202;SDS011;6666;51.626;7.530;2022-10-16T14:14:59;2.50;;;0.60;;
13202;SDS011;6666;51.626;7.530;2022-10-16T14:17:28;1.85;;;0.60;;
13202;SDS011;6666;51.626;7.530;2022-10-16T14:19:59;1.65;;;0.80;;
13202;SDS011;6666;51.626;7.530;2022-10-16T14:22:33;2.80;;;0.52;;
13202;SDS011;6666;51.626;7.530;2022-10-16T14:25:13;1.30;;;0.60;;
13202;SDS011;6666;51.626;7.530;2022-10-16T14:28:00;7.00;;;0.88;;
13202;SDS011;6666;51.626;7.530;2022-10-16T14:30:30;1.20;;;0.80;;
13202;SDS011;6666;51.626;7.530;2022-10-16T14:32:59;2.42;;;0.80;;
13202;SDS011;6666;51.626;7.530;2022-10-16T14:35:30;2.70;;;0.80;;
13202;SDS011;6666;51.626;7.530;2022-10-16T14:38:00;3.40;;;0.90;;
13202;SDS011;6666;51.626;7.530;2022-10-16T14:40:31;2.70;;;0.80;;
13202;SDS011;6666;51.626;7.530;2022-10-16T14:43:02;3.30;;;0.70;;
13202;SDS011;6666;51.626;7.530;2022-10-16T14:45:32;2.70;;;0.70;;
13202;SDS011;6666;51.626;7.530;2022-10-16T14:48:02;2.67;;;0.80;;
13202;SDS011;6666;51.626;7.530;2022-10-16T14:50:33;2.20;;;0.70;;
13202;SDS011;6666;51.626;7.530;2022-10-16T14:53:01;1.20;;;0.70;;
13202;SDS011;6666;51.626;7.530;2022-10-16T14:55:37;3.00;;;0.70;;
13202;SDS011;6666;51.626;7.530;2022-10-16T14:58:08;1.80;;;0.70;;
13202;SDS011;6666;51.626;7.530;2022-10-16T15:00:41;2.03;;;0.80;;
13202;SDS011;6666;51.626;7.530;2022-10-16T15:03:09;1.70;;;0.80;;
13202;SDS011;6666;51.626;7.530;2022-10-16T15:05:37;1.10;;;0.60;;
13202;SDS011;6666;51.626;7.530;2022-10-16T15:08:06;3.97;;;0.80;;
13202;SDS011;6666;51.626;7.530;2022-10-16T15:10:35;2.55;;;1.10;;
13202;SDS011;6666;51.626;7.530;2022-10-16T15:13:11;1.20;;;0.73;;
13202;SDS011;6666;51.626;7.530;2022-10-16T15:15:41;6.13;;;1.00;;
13202;SDS011;6666;51.626;7.530;2022-10-16T15:18:10;2.85;;;1.00;;
13202;SDS011;6666;51.626;7.530;2022-10-16T15:20:41;5.65;;;1.10;;
13202;SDS011;6666;51.626;7.530;2022-10-16T15:23:12;2.88;;;1.00;;
13202;SDS011;6666;51.626;7.530;2022-10-16T15:25:44;1.80;;;0.80;;
13202;SDS011;6666;51.626;7.530;2022-10-16T15:28:14;1.92;;;1.10;;
13202;SDS011;6666;51.626;7.530;2022-10-16T15:30:43;2.00;;;0.90;;
13202;SDS011;6666;51.626;7.530;2022-10-16T15:33:13;2.10;;;0.80;;
13202;SDS011;6666;51.626;7.530;2022-10-16T15:35:43;1.80;;;1.10;;
13202;SDS011;6666;51.626;7.530;2022-10-16T15:38:14;1.48;;;0.80;;